sensor_id;sensor_type;location;lat;lon;timestamp;P1;durP1;ratioP1;P2;durP2;ratioP2
3000;SDS011;1510;51.072;6.678;2023-06-22T00:01:04;8.30;;;4.30;;
3000;SDS011;1510;51.072;6.678;2023-06-22T00:03:31;8.83;;;5.10;;
3000;SDS011;1510;51.072;6.678;2023-06-22T00:05:59;11.20;;;6.13;;
3000;SDS011;1510;51.072;6.678;2023-06-22T00:08:26;8.13;;;5.10;;
3000;SDS011;1510;51.072;6.678;2023-06-22T00:10:53;8.60;;;5.13;;
3000;SDS011;1510;51.072;6.678;2023-06-22T00:13:21;9.67;;;5.20;;
3000;SDS011;1510;51.072;6.678;2023-06-22T00:15:48;6.73;;;4.57;;
3000;SDS011;1510;51.072;6.678;2023-06-22T00:18:14;7.97;;;5.10;;
3000;SDS011;1510;51.072;6.678;2023-06-22T00:20:41;8.57;;;4.70;;
3000;SDS011;1510;51.072;6.678;2023-06-22T00:23:12;9.47;;;5.97;;
3000;SDS011;1510;51.072;6.678;2023-06-22T00:25:40;6.80;;;4.37;;
3000;SDS011;1510;51.072;6.678;2023-06-22T00:28:08;7.90;;;5.20;;
3000;SDS011;1510;51.072;6.678;2023-06-22T00:30:35;10.87;;;5.30;;
3000;SDS011;1510;51.072;6.678;2023-06-22T00:33:02;9.23;;;5.57;;
3000;SDS011;1510;51.072;6.678;2023-06-22T00:35:32;8.00;;;5.40;;
3000;SDS011;1510;51.072;6.678;2023-06-22T00:38:00;13.67;;;5.63;;
3000;SDS011;1510;51.072;6.678;2023-06-22T00:40:30;8.67;;;5.93;;
3000;SDS011;1510;51.072;6.678;2023-06-22T00:42:58;8.90;;;5.83;;
3000;SDS011;1510;51.072;6.678;2023-06-22T00:45:25;9.07;;;5.53;;
3000;SDS011;1510;51.072;6.678;2023-06-22T00:47:53;8.33;;;6.03;;
3000;SDS011;1510;51.072;6.678;2023-06-22T00:50:25;9.80;;;7.10;;
3000;SDS011;1510;51.072;6.678;2023-06-22T00:52:59;9.40;;;7.27;;
3000;SDS011;1510;51.072;6.678;2023-06-22T00:55:34;8.37;;;6.43;;
3000;SDS011;1510;51.072;6.678;2023-06-22T00:58:03;8.50;;;6.40;;
3000;SDS011;1510;51.072;6.678;2023-06-22T01:00:35;9.77;;;7.10;;
3000;SDS011;1510;51.072;6.678;2023-06-22T01:03:02;9.90;;;6.60;;
3000;SDS011;1510;51.072;6.678;2023-06-22T01:05:34;12.37;;;6.70;;
3000;SDS011;1510;51.072;6.678;2023-06-22T01:08:06;10.33;;;6.80;;
3000;SDS011;1510;51.072;6.678;2023-06-22T01:10:43;7.23;;;6.00;;
3000;SDS011;1510;51.072;6.678;2023-06-22T01:13:16;8.33;;;5.90;;
3000;SDS011;1510;51.072;6.678;2023-06-22T01:15:53;14.93;;;6.90;;
3000;SDS011;1510;51.072;6.678;2023-06-22T01:18:26;12.67;;;7.07;;
3000;SDS011;1510;51.072;6.678;2023-06-22T01:20:56;10.07;;;6.23;;
3000;SDS011;1510;51.072;6.678;2023-06-22T01:23:27;8.27;;;6.70;;
3000;SDS011;1510;51.072;6.678;2023-06-22T01:26:06;10.50;;;6.70;;
3000;SDS011;1510;51.072;6.678;2023-06-22T01:28:46;8.80;;;6.40;;
3000;SDS011;1510;51.072;6.678;2023-06-22T01:31:16;9.63;;;6.30;;
3000;SDS011;1510;51.072;6.678;2023-06-22T01:33:47;8.70;;;6.43;;
3000;SDS011;1510;51.072;6.678;2023-06-22T01:36:30;11.77;;;6.53;;
3000;SDS011;1510;51.072;6.678;2023-06-22T01:38:58;10.07;;;6.37;;
3000;SDS011;1510;51.072;6.678;2023-06-22T01:41:26;10.13;;;6.90;;
3000;SDS011;1510;51.072;6.678;2023-06-22T01:43:56;8.07;;;5.57;;
3000;SDS011;1510;51.072;6.678;2023-06-22T01:46:24;9.83;;;6.70;;
3000;SDS011;1510;51.072;6.678;2023-06-22T01:48:51;8.93;;;6.67;;
3000;SDS011;1510;51.072;6.678;2023-06-22T01:51:19;11.17;;;7.43;;
3000;SDS011;1510;51.072;6.678;2023-06-22T01:53:46;13.33;;;6.67;;
3000;SDS011;1510;51.072;6.678;2023-06-22T01:56:13;8.70;;;7.03;;
3000;SDS011;1510;51.072;6.678;2023-06-22T01:58:45;8.20;;;6.60;;
3000;SDS011;1510;51.072;6.678;2023-06-22T02:01:21;9.57;;;7.63;;
3000;SDS011;1510;51.072;6.678;2023-06-22T02:03:56;10.57;;;9.40;;
3000;SDS011;1510;51.072;6.678;2023-06-22T02:06:30;9.90;;;8.03;;
3000;SDS011;1510;51.072;6.678;2023-06-22T02:09:02;8.40;;;6.30;;
3000;SDS011;1510;51.072;6.678;2023-06-22T02:11:35;9.33;;;6.40;;
3000;SDS011;1510;51.072;6.678;2023-06-22T02:14:03;8.13;;;7.33;;
3000;SDS011;1510;51.072;6.678;2023-06-22T02:16:33;10.87;;;9.00;;
3000;SDS011;1510;51.072;6.678;2023-06-22T02:19:03;12.07;;;10.83;;
3000;SDS011;1510;51.072;6.678;2023-06-22T02:21:31;11.67;;;10.23;;
3000;SDS011;1510;51.072;6.678;2023-06-22T02:23:58;11.33;;;10.23;;
3000;SDS011;1510;51.072;6.678;2023-06-22T02:26:25;10.80;;;7.97;;
3000;SDS011;1510;51.072;6.678;2023-06-22T02:28:53;10.43;;;7.67;;
3000;SDS011;1510;51.072;6.678;2023-06-22T02:31:20;8.77;;;6.97;;
3000;SDS011;1510;51.072;6.678;2023-06-22T02:33:49;8.87;;;7.57;;
3000;SDS011;1510;51.072;6.678;2023-06-22T02:36:15;11.03;;;8.40;;
3000;SDS011;1510;51.072;6.678;2023-06-22T02:38:47;10.77;;;9.17;;
3000;SDS011;1510;51.072;6.678;2023-06-22T02:41:14;11.27;;;10.07;;
3000;SDS011;1510;51.072;6.678;2023-06-22T02:43:43;13.30;;;9.57;;
3000;SDS011;1510;51.072;6.678;2023-06-22T02:46:11;19.03;;;11.70;;
3000;SDS011;1510;51.072;6.678;2023-06-22T02:48:38;15.23;;;12.20;;
3000;SDS011;1510;51.072;6.678;2023-06-22T02:51:07;13.43;;;12.07;;
3000;SDS011;1510;51.072;6.678;2023-06-22T02:53:34;13.67;;;10.47;;
3000;SDS011;1510;51.072;6.678;2023-06-22T02:56:01;15.53;;;10.17;;
3000;SDS011;1510;51.072;6.678;2023-06-22T02:58:30;12.73;;;9.60;;
3000;SDS011;1510;51.072;6.678;2023-06-22T03:01:03;9.63;;;7.37;;
3000;SDS011;1510;51.072;6.678;2023-06-22T03:03:30;9.53;;;7.30;;
3000;SDS011;1510;51.072;6.678;2023-06-22T03:05:57;11.87;;;7.97;;
3000;SDS011;1510;51.072;6.678;2023-06-22T03:08:27;13.00;;;8.63;;
3000;SDS011;1510;51.072;6.678;2023-06-22T03:13:21;10.83;;;8.73;;
3000;SDS011;1510;51.072;6.678;2023-06-22T03:15:48;12.93;;;8.93;;
3000;SDS011;1510;51.072;6.678;2023-06-22T03:18:15;8.57;;;6.67;;
3000;SDS011;1510;51.072;6.678;2023-06-22T03:20:42;11.57;;;7.80;;
3000;SDS011;1510;51.072;6.678;2023-06-22T03:23:09;12.70;;;9.10;;
3000;SDS011;1510;51.072;6.678;2023-06-22T03:25:37;10.83;;;9.33;;
3000;SDS011;1510;51.072;6.678;2023-06-22T03:28:04;15.93;;;14.33;;
3000;SDS011;1510;51.072;6.678;2023-06-22T03:30:31;18.00;;;16.73;;
3000;SDS011;1510;51.072;6.678;2023-06-22T03:32:58;15.27;;;13.87;;
3000;SDS011;1510;51.072;6.678;2023-06-22T03:35:25;11.00;;;9.87;;
3000;SDS011;1510;51.072;6.678;2023-06-22T03:37:52;17.50;;;11.07;;
3000;SDS011;1510;51.072;6.678;2023-06-22T03:40:20;12.43;;;10.83;;
3000;SDS011;1510;51.072;6.678;2023-06-22T03:42:48;12.47;;;11.17;;
3000;SDS011;1510;51.072;6.678;2023-06-22T03:45:15;12.10;;;9.57;;
3000;SDS011;1510;51.072;6.678;2023-06-22T03:47:42;13.53;;;11.13;;
3000;SDS011;1510;51.072;6.678;2023-06-22T03:50:09;15.13;;;13.07;;
3000;SDS011;1510;51.072;6.678;2023-06-22T03:52:36;21.87;;;20.10;;
3000;SDS011;1510;51.072;6.678;2023-06-22T03:55:03;31.03;;;29.00;;
3000;SDS011;1510;51.072;6.678;2023-06-22T03:57:31;38.50;;;36.37;;
3000;SDS011;1510;51.072;6.678;2023-06-22T03:59:59;41.07;;;38.97;;
3000;SDS011;1510;51.072;6.678;2023-06-22T04:02:27;39.13;;;36.80;;
3000;SDS011;1510;51.072;6.678;2023-06-22T04:04:54;41.10;;;38.70;;
3000;SDS011;1510;51.072;6.678;2023-06-22T04:07:21;52.13;;;49.57;;
3000;SDS011;1510;51.072;6.678;2023-06-22T04:09:48;66.60;;;63.70;;
3000;SDS011;1510;51.072;6.678;2023-06-22T04:12:15;82.27;;;78.77;;
3000;SDS011;1510;51.072;6.678;2023-06-22T04:14:42;18.37;;;16.87;;
3000;SDS011;1510;51.072;6.678;2023-06-22T04:17:10;17.93;;;14.67;;
3000;SDS011;1510;51.072;6.678;2023-06-22T04:19:39;15.20;;;12.53;;
3000;SDS011;1510;51.072;6.678;2023-06-22T04:22:06;12.63;;;10.80;;
3000;SDS011;1510;51.072;6.678;2023-06-22T04:24:33;13.30;;;11.90;;
3000;SDS011;1510;51.072;6.678;2023-06-22T04:27:00;13.87;;;12.47;;
3000;SDS011;1510;51.072;6.678;2023-06-22T04:29:27;17.53;;;15.93;;
3000;SDS011;1510;51.072;6.678;2023-06-22T04:31:55;16.47;;;15.00;;
3000;SDS011;1510;51.072;6.678;2023-06-22T04:34:24;19.80;;;18.10;;
3000;SDS011;1510;51.072;6.678;2023-06-22T04:36:53;16.63;;;15.17;;
3000;SDS011;1510;51.072;6.678;2023-06-22T04:39:20;18.70;;;12.00;;
3000;SDS011;1510;51.072;6.678;2023-06-22T04:41:47;14.27;;;12.87;;
3000;SDS011;1510;51.072;6.678;2023-06-22T04:44:15;19.60;;;17.47;;
3000;SDS011;1510;51.072;6.678;2023-06-22T04:46:49;25.80;;;23.90;;
3000;SDS011;1510;51.072;6.678;2023-06-22T04:49:19;35.53;;;33.30;;
3000;SDS011;1510;51.072;6.678;2023-06-22T04:51:48;34.97;;;32.40;;
3000;SDS011;1510;51.072;6.678;2023-06-22T04:54:16;32.57;;;30.33;;
3000;SDS011;1510;51.072;6.678;2023-06-22T04:56:43;32.37;;;30.17;;
3000;SDS011;1510;51.072;6.678;2023-06-22T04:59:11;51.07;;;48.07;;
3000;SDS011;1510;51.072;6.678;2023-06-22T05:01:39;33.80;;;31.67;;
3000;SDS011;1510;51.072;6.678;2023-06-22T05:04:06;45.97;;;43.17;;
3000;SDS011;1510;51.072;6.678;2023-06-22T05:06:34;20.43;;;18.73;;
3000;SDS011;1510;51.072;6.678;2023-06-22T05:09:02;22.97;;;21.30;;
3000;SDS011;1510;51.072;6.678;2023-06-22T05:11:30;25.53;;;23.20;;
3000;SDS011;1510;51.072;6.678;2023-06-22T05:13:57;19.87;;;17.77;;
3000;SDS011;1510;51.072;6.678;2023-06-22T05:16:24;20.33;;;18.43;;
3000;SDS011;1510;51.072;6.678;2023-06-22T05:18:51;12.70;;;10.00;;
3000;SDS011;1510;51.072;6.678;2023-06-22T05:21:21;15.53;;;11.03;;
3000;SDS011;1510;51.072;6.678;2023-06-22T05:23:49;17.53;;;10.47;;
3000;SDS011;1510;51.072;6.678;2023-06-22T05:26:17;15.03;;;8.93;;
3000;SDS011;1510;51.072;6.678;2023-06-22T05:28:44;14.83;;;9.53;;
3000;SDS011;1510;51.072;6.678;2023-06-22T05:31:13;16.33;;;10.10;;
3000;SDS011;1510;51.072;6.678;2023-06-22T05:33:40;16.57;;;11.50;;
3000;SDS011;1510;51.072;6.678;2023-06-22T05:36:08;12.57;;;10.33;;
3000;SDS011;1510;51.072;6.678;2023-06-22T05:38:35;16.13;;;10.90;;
3000;SDS011;1510;51.072;6.678;2023-06-22T05:41:02;13.00;;;10.10;;
3000;SDS011;1510;51.072;6.678;2023-06-22T05:43:30;13.80;;;11.50;;
3000;SDS011;1510;51.072;6.678;2023-06-22T05:45:57;16.03;;;10.57;;
3000;SDS011;1510;51.072;6.678;2023-06-22T05:48:24;16.43;;;11.10;;
3000;SDS011;1510;51.072;6.678;2023-06-22T05:50:51;12.50;;;9.70;;
3000;SDS011;1510;51.072;6.678;2023-06-22T05:53:19;13.17;;;9.53;;
3000;SDS011;1510;51.072;6.678;2023-06-22T05:55:46;13.43;;;9.37;;
3000;SDS011;1510;51.072;6.678;2023-06-22T05:58:13;16.77;;;9.03;;
3000;SDS011;1510;51.072;6.678;2023-06-22T06:00:42;12.70;;;9.37;;
3000;SDS011;1510;51.072;6.678;2023-06-22T06:03:09;12.50;;;9.33;;
3000;SDS011;1510;51.072;6.678;2023-06-22T06:05:37;13.93;;;12.43;;
3000;SDS011;1510;51.072;6.678;2023-06-22T06:08:04;12.37;;;11.10;;
3000;SDS011;1510;51.072;6.678;2023-06-22T06:10:32;15.70;;;11.40;;
3000;SDS011;1510;51.072;6.678;2023-06-22T06:12:59;16.47;;;13.60;;
3000;SDS011;1510;51.072;6.678;2023-06-22T06:15:29;15.00;;;13.07;;
3000;SDS011;1510;51.072;6.678;2023-06-22T06:17:57;33.77;;;31.67;;
3000;SDS011;1510;51.072;6.678;2023-06-22T06:20:25;37.73;;;35.40;;
3000;SDS011;1510;51.072;6.678;2023-06-22T06:22:53;239.85;;;231.57;;
3000;SDS011;1510;51.072;6.678;2023-06-22T06:25:21;427.50;;;411.30;;
3000;SDS011;1510;51.072;6.678;2023-06-22T06:27:48;638.87;;;608.57;;
3000;SDS011;1510;51.072;6.678;2023-06-22T06:30:18;723.13;;;686.63;;
3000;SDS011;1510;51.072;6.678;2023-06-22T06:32:45;758.17;;;718.63;;
3000;SDS011;1510;51.072;6.678;2023-06-22T06:35:14;753.20;;;717.20;;
3000;SDS011;1510;51.072;6.678;2023-06-22T06:37:42;681.37;;;652.57;;
3000;SDS011;1510;51.072;6.678;2023-06-22T06:40:11;847.80;;;795.20;;
3000;SDS011;1510;51.072;6.678;2023-06-22T06:42:39;754.43;;;716.20;;
3000;SDS011;1510;51.072;6.678;2023-06-22T06:45:09;572.60;;;549.80;;
3000;SDS011;1510;51.072;6.678;2023-06-22T06:47:37;435.33;;;419.07;;
3000;SDS011;1510;51.072;6.678;2023-06-22T06:50:04;613.80;;;584.97;;
3000;SDS011;1510;51.072;6.678;2023-06-22T06:52:34;670.97;;;637.73;;
3000;SDS011;1510;51.072;6.678;2023-06-22T06:55:01;622.17;;;594.60;;
3000;SDS011;1510;51.072;6.678;2023-06-22T06:57:29;376.80;;;363.90;;
3000;SDS011;1510;51.072;6.678;2023-06-22T06:59:57;560.97;;;537.77;;
3000;SDS011;1510;51.072;6.678;2023-06-22T07:02:24;406.10;;;391.70;;
3000;SDS011;1510;51.072;6.678;2023-06-22T07:04:53;466.13;;;448.40;;
3000;SDS011;1510;51.072;6.678;2023-06-22T07:07:21;685.73;;;654.13;;
3000;SDS011;1510;51.072;6.678;2023-06-22T07:09:49;259.13;;;250.23;;
3000;SDS011;1510;51.072;6.678;2023-06-22T07:12:16;242.17;;;233.87;;
3000;SDS011;1510;51.072;6.678;2023-06-22T07:14:43;100.73;;;96.27;;
3000;SDS011;1510;51.072;6.678;2023-06-22T07:17:10;66.50;;;62.90;;
3000;SDS011;1510;51.072;6.678;2023-06-22T07:19:37;26.03;;;23.90;;
3000;SDS011;1510;51.072;6.678;2023-06-22T07:22:05;19.10;;;16.40;;
3000;SDS011;1510;51.072;6.678;2023-06-22T07:24:32;17.60;;;12.50;;
3000;SDS011;1510;51.072;6.678;2023-06-22T07:27:00;15.03;;;12.67;;
3000;SDS011;1510;51.072;6.678;2023-06-22T07:29:28;15.47;;;11.10;;
3000;SDS011;1510;51.072;6.678;2023-06-22T07:31:56;15.47;;;11.90;;
3000;SDS011;1510;51.072;6.678;2023-06-22T07:34:25;14.90;;;11.50;;
3000;SDS011;1510;51.072;6.678;2023-06-22T07:36:52;16.23;;;11.20;;
3000;SDS011;1510;51.072;6.678;2023-06-22T07:39:19;13.53;;;10.00;;
3000;SDS011;1510;51.072;6.678;2023-06-22T07:41:50;13.83;;;10.77;;
3000;SDS011;1510;51.072;6.678;2023-06-22T07:44:19;14.87;;;10.23;;
3000;SDS011;1510;51.072;6.678;2023-06-22T07:46:46;14.10;;;11.77;;
3000;SDS011;1510;51.072;6.678;2023-06-22T07:49:13;19.00;;;12.53;;
3000;SDS011;1510;51.072;6.678;2023-06-22T07:51:40;13.97;;;10.90;;
3000;SDS011;1510;51.072;6.678;2023-06-22T07:54:08;17.03;;;11.77;;
3000;SDS011;1510;51.072;6.678;2023-06-22T07:56:36;13.53;;;10.80;;
3000;SDS011;1510;51.072;6.678;2023-06-22T07:59:03;13.70;;;11.10;;
3000;SDS011;1510;51.072;6.678;2023-06-22T08:01:31;16.97;;;11.40;;
3000;SDS011;1510;51.072;6.678;2023-06-22T08:03:58;13.47;;;10.63;;
3000;SDS011;1510;51.072;6.678;2023-06-22T08:06:25;11.87;;;9.70;;
3000;SDS011;1510;51.072;6.678;2023-06-22T08:08:52;19.00;;;11.83;;
3000;SDS011;1510;51.072;6.678;2023-06-22T08:11:19;14.27;;;11.67;;
3000;SDS011;1510;51.072;6.678;2023-06-22T08:13:48;16.17;;;11.60;;
3000;SDS011;1510;51.072;6.678;2023-06-22T08:16:15;15.37;;;11.80;;
3000;SDS011;1510;51.072;6.678;2023-06-22T08:18:44;11.80;;;9.20;;
3000;SDS011;1510;51.072;6.678;2023-06-22T08:21:11;13.57;;;9.73;;
3000;SDS011;1510;51.072;6.678;2023-06-22T08:23:37;15.27;;;10.10;;
3000;SDS011;1510;51.072;6.678;2023-06-22T08:26:04;14.20;;;10.70;;
3000;SDS011;1510;51.072;6.678;2023-06-22T08:28:31;12.60;;;9.50;;
3000;SDS011;1510;51.072;6.678;2023-06-22T08:30:59;11.73;;;9.37;;
3000;SDS011;1510;51.072;6.678;2023-06-22T08:33:26;11.77;;;9.77;;
3000;SDS011;1510;51.072;6.678;2023-06-22T08:35:57;13.67;;;9.30;;
3000;SDS011;1510;51.072;6.678;2023-06-22T08:38:24;12.10;;;9.10;;
3000;SDS011;1510;51.072;6.678;2023-06-22T08:40:51;13.23;;;9.50;;
3000;SDS011;1510;51.072;6.678;2023-06-22T08:43:18;14.20;;;9.50;;
3000;SDS011;1510;51.072;6.678;2023-06-22T08:45:45;11.83;;;7.70;;
3000;SDS011;1510;51.072;6.678;2023-06-22T08:48:12;11.93;;;7.63;;
3000;SDS011;1510;51.072;6.678;2023-06-22T08:50:38;10.83;;;8.27;;
3000;SDS011;1510;51.072;6.678;2023-06-22T08:53:07;9.73;;;6.93;;
3000;SDS011;1510;51.072;6.678;2023-06-22T08:55:34;10.33;;;7.33;;
3000;SDS011;1510;51.072;6.678;2023-06-22T08:58:01;13.00;;;7.97;;
3000;SDS011;1510;51.072;6.678;2023-06-22T09:00:29;12.37;;;8.10;;
3000;SDS011;1510;51.072;6.678;2023-06-22T09:02:59;9.90;;;7.23;;
3000;SDS011;1510;51.072;6.678;2023-06-22T09:05:26;13.80;;;7.23;;
3000;SDS011;1510;51.072;6.678;2023-06-22T09:07:53;12.70;;;8.07;;
3000;SDS011;1510;51.072;6.678;2023-06-22T09:10:22;14.17;;;8.57;;
3000;SDS011;1510;51.072;6.678;2023-06-22T09:12:49;13.23;;;6.90;;
3000;SDS011;1510;51.072;6.678;2023-06-22T09:15:16;11.53;;;8.23;;
3000;SDS011;1510;51.072;6.678;2023-06-22T09:17:43;11.40;;;7.47;;
3000;SDS011;1510;51.072;6.678;2023-06-22T09:20:11;12.33;;;8.07;;
3000;SDS011;1510;51.072;6.678;2023-06-22T09:22:38;10.87;;;7.73;;
3000;SDS011;1510;51.072;6.678;2023-06-22T09:25:05;13.93;;;7.10;;
3000;SDS011;1510;51.072;6.678;2023-06-22T09:27:34;11.60;;;7.30;;
3000;SDS011;1510;51.072;6.678;2023-06-22T09:30:01;10.73;;;7.50;;
3000;SDS011;1510;51.072;6.678;2023-06-22T09:32:28;10.83;;;6.90;;
3000;SDS011;1510;51.072;6.678;2023-06-22T09:34:55;10.90;;;7.50;;
3000;SDS011;1510;51.072;6.678;2023-06-22T09:37:22;10.80;;;7.97;;
3000;SDS011;1510;51.072;6.678;2023-06-22T09:39:49;12.13;;;6.53;;
3000;SDS011;1510;51.072;6.678;2023-06-22T09:42:16;9.30;;;7.23;;
3000;SDS011;1510;51.072;6.678;2023-06-22T09:44:44;10.50;;;6.60;;
3000;SDS011;1510;51.072;6.678;2023-06-22T09:47:11;9.83;;;6.07;;
3000;SDS011;1510;51.072;6.678;2023-06-22T09:49:38;10.07;;;7.00;;
3000;SDS011;1510;51.072;6.678;2023-06-22T09:52:05;10.27;;;7.10;;
3000;SDS011;1510;51.072;6.678;2023-06-22T09:54:32;9.83;;;6.93;;
3000;SDS011;1510;51.072;6.678;2023-06-22T09:56:59;12.30;;;7.50;;
3000;SDS011;1510;51.072;6.678;2023-06-22T09:59:26;8.97;;;6.10;;
3000;SDS011;1510;51.072;6.678;2023-06-22T10:01:54;8.80;;;6.13;;
3000;SDS011;1510;51.072;6.678;2023-06-22T10:04:21;11.53;;;6.30;;
3000;SDS011;1510;51.072;6.678;2023-06-22T10:06:49;12.23;;;8.33;;
3000;SDS011;1510;51.072;6.678;2023-06-22T10:09:16;9.87;;;7.03;;
3000;SDS011;1510;51.072;6.678;2023-06-22T10:11:43;11.40;;;6.80;;
3000;SDS011;1510;51.072;6.678;2023-06-22T10:14:10;14.00;;;6.50;;
3000;SDS011;1510;51.072;6.678;2023-06-22T10:16:37;10.33;;;7.20;;
3000;SDS011;1510;51.072;6.678;2023-06-22T10:19:05;10.40;;;6.67;;
3000;SDS011;1510;51.072;6.678;2023-06-22T10:21:32;9.53;;;6.90;;
3000;SDS011;1510;51.072;6.678;2023-06-22T10:23:59;9.63;;;7.23;;
3000;SDS011;1510;51.072;6.678;2023-06-22T10:26:31;11.53;;;6.50;;
3000;SDS011;1510;51.072;6.678;2023-06-22T10:28:58;11.10;;;7.10;;
3000;SDS011;1510;51.072;6.678;2023-06-22T10:31:25;9.53;;;6.70;;
3000;SDS011;1510;51.072;6.678;2023-06-22T10:33:52;12.43;;;7.70;;
3000;SDS011;1510;51.072;6.678;2023-06-22T10:36:21;11.53;;;7.80;;
3000;SDS011;1510;51.072;6.678;2023-06-22T10:38:48;15.73;;;10.73;;
3000;SDS011;1510;51.072;6.678;2023-06-22T10:41:15;17.53;;;8.80;;
3000;SDS011;1510;51.072;6.678;2023-06-22T10:43:42;16.10;;;12.37;;
3000;SDS011;1510;51.072;6.678;2023-06-22T10:46:09;125.70;;;120.63;;
3000;SDS011;1510;51.072;6.678;2023-06-22T10:48:36;131.47;;;125.87;;
3000;SDS011;1510;51.072;6.678;2023-06-22T10:51:03;166.87;;;160.63;;
3000;SDS011;1510;51.072;6.678;2023-06-22T10:53:31;341.70;;;328.97;;
3000;SDS011;1510;51.072;6.678;2023-06-22T10:55:58;501.40;;;480.03;;
3000;SDS011;1510;51.072;6.678;2023-06-22T10:58:25;731.07;;;690.83;;
3000;SDS011;1510;51.072;6.678;2023-06-22T11:00:52;748.63;;;705.13;;
3000;SDS011;1510;51.072;6.678;2023-06-22T11:03:19;715.53;;;677.10;;
3000;SDS011;1510;51.072;6.678;2023-06-22T11:05:46;791.47;;;748.10;;
3000;SDS011;1510;51.072;6.678;2023-06-22T11:08:13;868.50;;;817.13;;
3000;SDS011;1510;51.072;6.678;2023-06-22T11:10:42;896.50;;;838.17;;
3000;SDS011;1510;51.072;6.678;2023-06-22T11:13:09;890.27;;;829.13;;
3000;SDS011;1510;51.072;6.678;2023-06-22T11:15:36;902.70;;;842.43;;
3000;SDS011;1510;51.072;6.678;2023-06-22T11:18:04;938.93;;;874.40;;
3000;SDS011;1510;51.072;6.678;2023-06-22T11:20:32;898.07;;;830.57;;
3000;SDS011;1510;51.072;6.678;2023-06-22T11:23:03;938.50;;;866.63;;
3000;SDS011;1510;51.072;6.678;2023-06-22T11:25:30;951.50;;;874.70;;
3000;SDS011;1510;51.072;6.678;2023-06-22T11:27:58;903.87;;;827.73;;
3000;SDS011;1510;51.072;6.678;2023-06-22T11:30:25;879.57;;;808.87;;
3000;SDS011;1510;51.072;6.678;2023-06-22T11:32:52;907.23;;;842.53;;
3000;SDS011;1510;51.072;6.678;2023-06-22T11:35:19;896.03;;;827.80;;
3000;SDS011;1510;51.072;6.678;2023-06-22T11:37:46;912.60;;;838.60;;
3000;SDS011;1510;51.072;6.678;2023-06-22T11:40:13;884.03;;;806.93;;
3000;SDS011;1510;51.072;6.678;2023-06-22T11:42:40;892.90;;;813.23;;
3000;SDS011;1510;51.072;6.678;2023-06-22T11:45:09;931.60;;;854.47;;
3000;SDS011;1510;51.072;6.678;2023-06-22T11:47:36;964.73;;;886.70;;
3000;SDS011;1510;51.072;6.678;2023-06-22T11:50:04;1059.50;;;976.90;;
3000;SDS011;1510;51.072;6.678;2023-06-22T11:52:33;1059.23;;;980.37;;
3000;SDS011;1510;51.072;6.678;2023-06-22T11:55:00;917.80;;;857.00;;
3000;SDS011;1510;51.072;6.678;2023-06-22T11:57:28;954.47;;;890.90;;
3000;SDS011;1510;51.072;6.678;2023-06-22T11:59:56;821.63;;;771.23;;
3000;SDS011;1510;51.072;6.678;2023-06-22T12:02:24;783.77;;;741.23;;
3000;SDS011;1510;51.072;6.678;2023-06-22T12:04:51;713.73;;;684.43;;
3000;SDS011;1510;51.072;6.678;2023-06-22T12:07:19;796.67;;;752.67;;
3000;SDS011;1510;51.072;6.678;2023-06-22T12:09:46;820.17;;;773.37;;
3000;SDS011;1510;51.072;6.678;2023-06-22T12:12:13;825.93;;;780.47;;
3000;SDS011;1510;51.072;6.678;2023-06-22T12:14:40;801.00;;;760.40;;
3000;SDS011;1510;51.072;6.678;2023-06-22T12:17:07;827.37;;;773.00;;
3000;SDS011;1510;51.072;6.678;2023-06-22T12:19:36;811.93;;;763.87;;
3000;SDS011;1510;51.072;6.678;2023-06-22T12:22:03;824.43;;;766.57;;
3000;SDS011;1510;51.072;6.678;2023-06-22T12:24:30;836.30;;;774.73;;
3000;SDS011;1510;51.072;6.678;2023-06-22T12:26:56;836.50;;;776.80;;
3000;SDS011;1510;51.072;6.678;2023-06-22T12:29:23;814.47;;;766.60;;
3000;SDS011;1510;51.072;6.678;2023-06-22T12:31:50;790.03;;;750.83;;
3000;SDS011;1510;51.072;6.678;2023-06-22T12:34:17;787.10;;;750.33;;
3000;SDS011;1510;51.072;6.678;2023-06-22T12:36:45;589.30;;;567.70;;
3000;SDS011;1510;51.072;6.678;2023-06-22T12:39:13;385.40;;;371.53;;
3000;SDS011;1510;51.072;6.678;2023-06-22T12:41:40;272.27;;;262.27;;
3000;SDS011;1510;51.072;6.678;2023-06-22T12:44:07;246.67;;;237.47;;
3000;SDS011;1510;51.072;6.678;2023-06-22T12:46:34;134.57;;;128.73;;
3000;SDS011;1510;51.072;6.678;2023-06-22T12:49:03;195.70;;;188.17;;
3000;SDS011;1510;51.072;6.678;2023-06-22T12:51:30;271.27;;;260.63;;
3000;SDS011;1510;51.072;6.678;2023-06-22T12:53:58;291.07;;;280.37;;
3000;SDS011;1510;51.072;6.678;2023-06-22T12:56:25;299.17;;;288.20;;
3000;SDS011;1510;51.072;6.678;2023-06-22T12:58:52;257.23;;;247.83;;
3000;SDS011;1510;51.072;6.678;2023-06-22T13:01:19;242.33;;;233.60;;
3000;SDS011;1510;51.072;6.678;2023-06-22T13:03:47;254.53;;;245.07;;
3000;SDS011;1510;51.072;6.678;2023-06-22T13:06:14;354.43;;;341.77;;
3000;SDS011;1510;51.072;6.678;2023-06-22T13:08:41;345.73;;;333.03;;
3000;SDS011;1510;51.072;6.678;2023-06-22T13:11:09;178.63;;;171.77;;
3000;SDS011;1510;51.072;6.678;2023-06-22T13:13:36;215.80;;;207.23;;
3000;SDS011;1510;51.072;6.678;2023-06-22T13:16:04;135.73;;;130.00;;
3000;SDS011;1510;51.072;6.678;2023-06-22T13:18:31;115.77;;;110.10;;
3000;SDS011;1510;51.072;6.678;2023-06-22T13:20:59;77.63;;;73.23;;
3000;SDS011;1510;51.072;6.678;2023-06-22T13:23:26;57.67;;;54.23;;
3000;SDS011;1510;51.072;6.678;2023-06-22T13:25:53;95.73;;;91.07;;
3000;SDS011;1510;51.072;6.678;2023-06-22T13:28:21;130.73;;;125.07;;
3000;SDS011;1510;51.072;6.678;2023-06-22T13:30:48;85.13;;;80.53;;
3000;SDS011;1510;51.072;6.678;2023-06-22T13:33:15;43.83;;;40.70;;
3000;SDS011;1510;51.072;6.678;2023-06-22T13:35:42;33.20;;;30.60;;
3000;SDS011;1510;51.072;6.678;2023-06-22T13:38:09;29.37;;;22.37;;
3000;SDS011;1510;51.072;6.678;2023-06-22T13:40:36;30.03;;;27.17;;
3000;SDS011;1510;51.072;6.678;2023-06-22T13:43:04;30.67;;;27.47;;
3000;SDS011;1510;51.072;6.678;2023-06-22T13:45:32;22.47;;;17.73;;
3000;SDS011;1510;51.072;6.678;2023-06-22T13:47:59;32.23;;;29.17;;
3000;SDS011;1510;51.072;6.678;2023-06-22T13:50:26;39.90;;;36.10;;
3000;SDS011;1510;51.072;6.678;2023-06-22T13:52:54;43.43;;;39.37;;
3000;SDS011;1510;51.072;6.678;2023-06-22T13:55:21;35.03;;;31.67;;
3000;SDS011;1510;51.072;6.678;2023-06-22T13:57:49;27.43;;;24.20;;
3000;SDS011;1510;51.072;6.678;2023-06-22T14:00:16;30.57;;;27.57;;
3000;SDS011;1510;51.072;6.678;2023-06-22T14:02:45;30.63;;;27.33;;
3000;SDS011;1510;51.072;6.678;2023-06-22T14:05:12;27.80;;;24.80;;
3000;SDS011;1510;51.072;6.678;2023-06-22T14:07:39;29.03;;;23.27;;
3000;SDS011;1510;51.072;6.678;2023-06-22T14:10:06;28.27;;;23.67;;
3000;SDS011;1510;51.072;6.678;2023-06-22T14:12:33;26.53;;;23.77;;
3000;SDS011;1510;51.072;6.678;2023-06-22T14:15:00;27.30;;;18.60;;
3000;SDS011;1510;51.072;6.678;2023-06-22T14:17:27;22.47;;;17.03;;
3000;SDS011;1510;51.072;6.678;2023-06-22T14:19:55;49.25;;;45.15;;
3000;SDS011;1510;51.072;6.678;2023-06-22T14:22:22;28.67;;;23.20;;
3000;SDS011;1510;51.072;6.678;2023-06-22T14:24:49;28.37;;;24.80;;
3000;SDS011;1510;51.072;6.678;2023-06-22T14:27:16;35.07;;;31.67;;
3000;SDS011;1510;51.072;6.678;2023-06-22T14:29:43;46.57;;;42.70;;
3000;SDS011;1510;51.072;6.678;2023-06-22T14:32:10;51.07;;;47.20;;
3000;SDS011;1510;51.072;6.678;2023-06-22T14:34:36;37.97;;;34.23;;
3000;SDS011;1510;51.072;6.678;2023-06-22T14:37:06;36.80;;;32.40;;
3000;SDS011;1510;51.072;6.678;2023-06-22T14:39:34;66.70;;;62.40;;
3000;SDS011;1510;51.072;6.678;2023-06-22T14:42:01;71.03;;;66.57;;
3000;SDS011;1510;51.072;6.678;2023-06-22T14:44:29;48.73;;;45.03;;
3000;SDS011;1510;51.072;6.678;2023-06-22T14:46:56;40.70;;;36.93;;
3000;SDS011;1510;51.072;6.678;2023-06-22T14:49:23;64.53;;;60.10;;
3000;SDS011;1510;51.072;6.678;2023-06-22T14:51:50;43.47;;;40.03;;
3000;SDS011;1510;51.072;6.678;2023-06-22T14:54:18;30.20;;;27.20;;